createdAt,value
2022-12-12T00:03:17.796Z,73.41
2022-12-12T00:08:17.629Z,73.43
2022-12-12T00:13:17.569Z,73.45
2022-12-12T00:18:17.489Z,73.45
2022-12-12T00:23:17.453Z,73.40
2022-12-12T00:28:17.364Z,73.36
2022-12-12T00:33:17.314Z,73.38
2022-12-12T00:38:17.225Z,73.40
2022-12-12T00:43:17.182Z,73.41
2022-12-12T00:48:17.109Z,73.41
2022-12-12T00:53:17.050Z,73.39
2022-12-12T00:58:16.953Z,73.40
2022-12-12T01:03:17.069Z,73.40
2022-12-12T01:08:38.968Z,73.02
2022-12-12T01:13:31.336Z,73.31
2022-12-12T01:18:31.632Z,73.45
2022-12-12T01:23:31.226Z,73.42
2022-12-12T01:28:31.172Z,73.43
2022-12-12T01:33:31.087Z,73.43
2022-12-12T01:38:31.055Z,73.40
2022-12-12T01:43:30.962Z,73.38
2022-12-12T01:48:30.960Z,73.39
2022-12-12T01:53:30.832Z,73.40
2022-12-12T01:58:30.776Z,73.38
2022-12-12T02:03:30.702Z,73.35
2022-12-12T02:08:30.695Z,73.31
2022-12-12T02:13:30.606Z,73.30
2022-12-12T02:18:30.533Z,73.31
2022-12-12T02:23:30.437Z,73.32
2022-12-12T02:28:30.410Z,73.35
2022-12-12T02:33:30.338Z,73.34
2022-12-12T02:38:30.296Z,73.32
2022-12-12T02:43:30.213Z,73.34
2022-12-12T02:48:30.151Z,73.36
2022-12-12T02:53:30.088Z,73.37
2022-12-12T02:58:30.026Z,73.37
2022-12-12T03:03:29.939Z,73.33
2022-12-12T03:08:29.929Z,73.34
2022-12-12T03:13:29.788Z,73.35
2022-12-12T03:18:29.764Z,73.37
2022-12-12T03:23:29.717Z,73.34
2022-12-12T03:28:29.650Z,73.29
2022-12-12T03:33:29.570Z,73.27
2022-12-12T03:38:29.499Z,73.30
2022-12-12T03:43:29.425Z,73.28
2022-12-12T03:48:29.373Z,73.25
2022-12-12T03:53:29.353Z,73.23
2022-12-12T03:58:29.258Z,73.23
2022-12-12T04:03:29.177Z,73.21
2022-12-12T04:08:29.193Z,73.19
2022-12-12T04:13:32.180Z,73.20
2022-12-12T04:18:28.998Z,73.18
2022-12-12T04:23:28.903Z,73.14
2022-12-12T04:28:28.874Z,73.17
2022-12-12T04:33:28.798Z,73.19
2022-12-12T04:38:28.742Z,73.21
2022-12-12T04:43:28.658Z,73.22
2022-12-12T04:48:28.616Z,73.25
2022-12-12T04:53:28.531Z,73.26
2022-12-12T04:58:28.478Z,73.25
2022-12-12T05:03:28.408Z,73.22
2022-12-12T05:08:28.437Z,73.21
2022-12-12T05:13:28.283Z,73.16
2022-12-12T05:18:37.654Z,72.81
2022-12-12T05:23:34.486Z,73.07
2022-12-12T05:28:29.977Z,73.23
2022-12-12T05:33:29.925Z,73.24
2022-12-12T05:38:29.912Z,73.21
2022-12-12T05:43:29.809Z,73.20
2022-12-12T05:48:29.725Z,73.15
2022-12-12T05:53:29.686Z,73.11
2022-12-12T05:58:29.589Z,73.12
2022-12-12T06:03:29.539Z,73.13
2022-12-12T06:08:29.556Z,73.10
2022-12-12T06:13:29.420Z,73.01
2022-12-12T06:18:29.327Z,73.02
2022-12-12T06:23:29.278Z,72.97
2022-12-12T06:28:29.211Z,72.98
2022-12-12T06:33:29.155Z,72.99
2022-12-12T06:38:29.102Z,73.02
2022-12-12T06:43:29.039Z,72.97
2022-12-12T06:48:29.016Z,72.97
2022-12-12T06:53:28.904Z,72.92
2022-12-12T06:58:28.836Z,72.89
2022-12-12T07:03:28.783Z,72.90
2022-12-12T07:08:28.761Z,72.93
2022-12-12T07:13:28.663Z,72.95
2022-12-12T07:18:28.559Z,72.91
2022-12-12T07:23:28.529Z,72.86
2022-12-12T07:28:28.457Z,72.86
2022-12-12T07:33:38.255Z,72.85
2022-12-12T07:38:29.305Z,72.78
2022-12-12T07:43:28.284Z,72.74
2022-12-12T07:48:28.168Z,72.71
2022-12-12T07:53:28.130Z,72.63
2022-12-12T07:58:28.048Z,72.57
2022-12-12T08:03:28.031Z,72.48
2022-12-12T08:08:27.917Z,72.39
2022-12-12T08:13:27.872Z,72.30
2022-12-12T08:18:27.808Z,72.18
2022-12-12T08:23:27.762Z,72.06
2022-12-12T08:28:27.686Z,71.98
2022-12-12T08:33:27.629Z,71.85
2022-12-12T08:38:27.572Z,71.64
2022-12-12T08:43:27.548Z,71.31
2022-12-12T08:48:27.423Z,71.05
2022-12-12T08:53:27.383Z,71.15
2022-12-12T08:58:27.302Z,71.00
2022-12-12T09:03:29.460Z,70.97
2022-12-12T09:08:27.225Z,70.86
2022-12-12T09:13:27.121Z,70.70
2022-12-12T09:18:27.034Z,70.48
2022-12-12T09:23:27.009Z,70.34
2022-12-12T09:28:26.919Z,70.20
2022-12-12T09:33:26.930Z,69.92
2022-12-12T09:38:26.792Z,69.80
2022-12-12T09:43:29.611Z,69.54
2022-12-12T09:48:26.721Z,69.54
2022-12-12T09:53:26.612Z,69.62
2022-12-12T09:58:26.519Z,69.43
2022-12-12T10:03:26.477Z,69.14
2022-12-12T10:08:26.453Z,69.05
2022-12-12T10:13:26.354Z,68.94
2022-12-12T10:18:26.285Z,68.67
2022-12-12T10:23:26.226Z,68.75
2022-12-12T10:28:26.148Z,68.77
2022-12-12T10:33:26.089Z,68.68
2022-12-12T10:38:26.064Z,68.24
2022-12-12T10:43:25.958Z,68.11
2022-12-12T10:48:25.898Z,68.36
2022-12-12T10:53:25.855Z,68.24
2022-12-12T10:58:25.730Z,67.97
2022-12-12T11:03:25.748Z,67.57
2022-12-12T11:08:25.699Z,67.50
2022-12-12T11:13:25.569Z,67.37
2022-12-12T11:18:25.498Z,66.99
2022-12-12T11:23:25.469Z,66.73
2022-12-12T11:28:25.372Z,66.53
2022-12-12T11:33:25.335Z,66.24
2022-12-12T11:38:25.270Z,66.00
2022-12-12T11:43:25.186Z,66.07
2022-12-12T11:48:25.111Z,66.13
2022-12-12T11:53:25.080Z,65.99
2022-12-12T11:58:25.030Z,65.56
2022-12-12T12:03:24.990Z,65.25
2022-12-12T12:08:24.890Z,65.11
2022-12-12T12:13:24.815Z,65.12
2022-12-12T12:18:28.014Z,65.79
2022-12-12T12:23:25.617Z,66.73
2022-12-12T12:28:24.584Z,67.48
2022-12-12T12:33:24.552Z,67.41
2022-12-12T12:38:24.470Z,67.33
2022-12-12T12:43:24.437Z,67.32
2022-12-12T12:48:24.347Z,67.35
2022-12-12T12:53:24.309Z,67.45
2022-12-12T12:58:24.225Z,67.63
2022-12-12T13:03:24.188Z,67.60
2022-12-12T13:08:24.123Z,67.56
2022-12-12T13:13:24.042Z,67.63
2022-12-12T13:18:23.954Z,67.70
2022-12-12T13:23:23.911Z,67.75
2022-12-12T13:28:23.821Z,67.91
2022-12-12T13:33:23.807Z,67.98
2022-12-12T13:38:23.704Z,68.10
2022-12-12T13:43:23.629Z,68.10
2022-12-12T13:48:23.578Z,68.20
2022-12-12T13:53:23.544Z,68.07
2022-12-12T13:58:24.645Z,68.01
2022-12-12T14:03:23.463Z,68.02
2022-12-12T14:08:23.350Z,68.35
2022-12-12T14:13:23.294Z,68.52
2022-12-12T14:18:28.502Z,68.68
2022-12-12T14:23:24.146Z,68.79
2022-12-12T14:28:23.085Z,68.91
2022-12-12T14:33:23.165Z,69.08
2022-12-12T14:38:27.838Z,69.18
2022-12-12T14:43:23.888Z,69.29
2022-12-12T14:48:22.847Z,69.43
2022-12-12T14:53:22.754Z,69.57
2022-12-12T14:58:22.677Z,69.70
2022-12-12T15:03:22.746Z,69.82
2022-12-12T15:08:22.608Z,69.94
2022-12-12T15:13:22.507Z,70.06
2022-12-12T15:18:22.419Z,70.19
2022-12-12T15:23:22.354Z,70.28
2022-12-12T15:28:22.324Z,70.40
2022-12-12T15:33:22.281Z,70.50
2022-12-12T15:38:22.168Z,70.57
2022-12-12T15:43:22.127Z,70.64
2022-12-12T15:48:22.037Z,70.71
2022-12-12T15:53:21.996Z,70.76
2022-12-12T15:58:28.924Z,70.81
2022-12-12T16:03:22.881Z,70.87
2022-12-12T16:08:21.913Z,70.91
2022-12-12T16:13:21.762Z,70.94
2022-12-12T16:18:21.663Z,70.99
2022-12-12T16:23:21.640Z,71.05
2022-12-12T16:28:25.292Z,71.07
2022-12-12T16:33:21.487Z,71.09
2022-12-12T16:38:21.429Z,71.10
2022-12-12T16:43:21.373Z,71.13
2022-12-12T16:48:21.278Z,71.17
2022-12-12T16:53:21.238Z,71.22
2022-12-12T16:58:21.178Z,71.25
2022-12-12T17:03:21.081Z,71.28
2022-12-12T17:08:21.077Z,71.31
2022-12-12T17:13:20.976Z,71.32
2022-12-12T17:18:20.866Z,71.35
2022-12-12T17:23:35.613Z,71.37
2022-12-12T17:28:20.816Z,71.40
2022-12-12T17:33:20.737Z,71.43
2022-12-12T17:38:20.635Z,71.46
2022-12-12T17:43:20.608Z,71.47
2022-12-12T17:48:20.540Z,71.49
2022-12-12T17:53:20.481Z,71.52
2022-12-12T17:58:23.808Z,71.54
2022-12-12T18:03:21.363Z,71.57
2022-12-12T18:08:20.308Z,71.63
2022-12-12T18:13:20.213Z,71.65
2022-12-12T18:18:20.132Z,71.66
2022-12-12T18:23:20.082Z,71.69
2022-12-12T18:28:20.007Z,71.72
2022-12-12T18:33:19.993Z,71.77
2022-12-12T18:38:19.887Z,71.79
2022-12-12T18:43:19.844Z,71.81
2022-12-12T18:48:19.755Z,71.84
2022-12-12T18:53:19.679Z,71.85
2022-12-12T18:58:19.627Z,71.90
2022-12-12T19:03:19.572Z,71.86
2022-12-12T19:08:19.539Z,71.90
2022-12-12T19:13:19.449Z,71.93
2022-12-12T19:18:19.408Z,72.00
2022-12-12T19:23:19.342Z,72.04
2022-12-12T19:28:19.267Z,72.06
2022-12-12T19:33:19.194Z,72.09
2022-12-12T19:38:24.264Z,72.09
2022-12-12T19:43:20.059Z,72.13
2022-12-12T19:48:19.020Z,72.16
2022-12-12T19:53:18.945Z,72.19
2022-12-12T19:58:18.867Z,72.22
2022-12-12T20:03:18.816Z,72.23
2022-12-12T20:08:18.846Z,72.25
2022-12-12T20:13:18.681Z,72.25
2022-12-12T20:18:18.668Z,72.28
2022-12-12T20:23:18.590Z,72.27
2022-12-12T20:28:18.543Z,72.32
2022-12-12T20:33:18.434Z,72.35
2022-12-12T20:38:18.381Z,72.36
2022-12-12T20:43:18.303Z,72.38
2022-12-12T20:48:18.282Z,72.40
2022-12-12T20:53:18.234Z,72.40
2022-12-12T20:58:18.130Z,72.40
2022-12-12T21:03:18.089Z,72.42
2022-12-12T21:08:18.062Z,72.43
2022-12-12T21:13:17.932Z,72.44
2022-12-12T21:18:17.884Z,72.47
2022-12-12T21:23:18.166Z,72.46
2022-12-12T21:28:17.754Z,72.49
2022-12-12T21:33:17.676Z,72.51
2022-12-12T21:38:17.639Z,72.51
2022-12-12T21:43:17.561Z,72.50
2022-12-12T21:48:17.483Z,72.51
2022-12-12T21:53:17.432Z,72.55
2022-12-12T21:58:17.383Z,72.57
2022-12-12T22:03:17.367Z,72.58
2022-12-12T22:08:17.314Z,72.57
2022-12-12T22:13:17.181Z,72.63
2022-12-12T22:18:17.120Z,72.67
2022-12-12T22:23:17.060Z,72.68
2022-12-12T22:28:16.988Z,72.70
2022-12-12T22:33:16.922Z,72.69
2022-12-12T22:38:16.870Z,72.73
2022-12-12T22:43:16.815Z,72.73
2022-12-12T22:48:16.744Z,72.74
2022-12-12T22:53:16.656Z,72.74
2022-12-12T22:58:16.621Z,72.75
2022-12-12T23:03:16.547Z,72.76
2022-12-12T23:08:16.518Z,72.79
2022-12-12T23:13:16.420Z,72.81
2022-12-12T23:18:16.382Z,72.84
2022-12-12T23:23:16.293Z,72.85
2022-12-12T23:28:16.252Z,72.86
2022-12-12T23:33:16.178Z,72.88
2022-12-12T23:38:16.115Z,72.87
2022-12-12T23:43:16.043Z,72.87
2022-12-12T23:48:15.988Z,72.91
2022-12-12T23:53:15.908Z,72.95
2022-12-12T23:58:15.863Z,72.98
